Time;durP1;ratioP1;P1;durP2;ratioP2;P2;SDS_P1;SDS_P2;PMS_P1;PMS_P2;Temp;Humidity;BMP_temperature;BMP_pressure;BME280_temperature;BME280_humidity;BME280_pressure;Samples;Min_cycle;Max_cycle;Signal;HPM_P1;HPM_P2
2021/05/22 09:53:22;;;;;;;1.37;1.27;;;13.20;99.90;;;;;;4842933;23;20785;-72
2021/05/22 09:56:11;;;;;;;0.90;0.77;;;13.30;99.90;;;;;;4962717;28;20461;-73
2021/05/22 09:58:42;;;;;;;1.03;0.70;;;13.30;99.90;;;;;;4956132;28;20434;-73
2021/05/22 10:01:09;;;;;;;0.73;0.73;;;13.30;99.90;;;;;;4957603;28;20452;-73
2021/05/22 10:03:35;;;;;;;1.67;1.27;;;13.30;99.90;;;;;;4972698;28;20453;-73
2021/05/22 10:06:00;;;;;;;2.80;1.30;;;13.30;99.90;;;;;;4955396;28;20850;-73
2021/05/22 10:08:26;;;;;;;0.80;0.80;;;13.30;99.90;;;;;;4943331;28;20434;-73
2021/05/22 10:10:56;;;;;;;4.30;1.30;;;13.30;99.90;;;;;;4957061;28;20214;-73
2021/05/22 10:13:23;;;;;;;1.20;0.80;;;13.30;99.90;;;;;;4956903;28;20202;-73
2021/05/22 10:15:50;;;;;;;1.47;0.90;;;13.30;99.90;;;;;;4956587;28;20442;-73
2021/05/22 10:18:17;;;;;;;1.63;0.70;;;13.30;99.90;;;;;;4960825;28;20446;-73
2021/05/22 10:20:43;;;;;;;1.23;0.73;;;13.30;99.90;;;;;;4938279;28;20520;-73
2021/05/22 10:23:10;;;;;;;0.50;0.50;;;13.30;99.90;;;;;;4957090;28;21033;-73
2021/05/22 10:25:37;;;;;;;2.63;0.87;;;13.30;99.90;;;;;;4955834;28;20201;-73
2021/05/22 10:28:08;;;;;;;1.83;0.63;;;13.40;99.90;;;;;;4944470;28;20509;-73
2021/05/22 10:30:33;;;;;;;1.03;0.67;;;13.50;99.90;;;;;;4940516;28;20470;-73
2021/05/22 10:33:05;;;;;;;2.37;0.53;;;13.60;99.90;;;;;;4940105;28;20457;-73
2021/05/22 10:35:40;;;;;;;1.10;0.70;;;13.70;99.90;;;;;;4940114;28;20183;-73
2021/05/22 10:38:07;;;;;;;1.13;0.60;;;13.70;99.90;;;;;;4952266;28;20461;-73
2021/05/22 10:40:44;;;;;;;1.07;0.90;;;13.70;99.90;;;;;;4930685;28;20453;-73
2021/05/22 10:43:10;;;;;;;1.80;0.87;;;13.70;99.90;;;;;;4947693;28;20442;-73
2021/05/22 10:45:38;;;;;;;2.20;0.70;;;13.80;99.90;;;;;;4957199;28;20988;-73
2021/05/22 10:48:06;;;;;;;1.57;0.60;;;13.80;99.90;;;;;;4956307;28;20198;-73
2021/05/22 10:50:48;;;;;;;1.47;1.30;;;13.90;99.90;;;;;;4953939;28;20544;-73
2021/05/22 10:53:24;;;;;;;0.60;0.60;;;13.90;99.90;;;;;;4937889;28;20477;-73
2021/05/22 10:56:07;;;;;;;2.37;0.90;;;13.90;99.90;;;;;;4937646;28;20437;-73
2021/05/22 10:58:34;;;;;;;0.57;0.57;;;14.00;99.90;;;;;;4950170;28;20449;-73
2021/05/22 11:01:26;;;;;;;1.57;1.03;;;14.20;99.90;;;;;;4970969;28;20796;-73
2021/05/22 11:07:14;;;;;;;0.70;0.57;;;14.40;99.90;;;;;;4967096;28;20433;-73
2021/05/22 11:09:39;;;;;;;1.53;0.90;;;14.50;99.90;;;;;;4940334;28;20466;-73
2021/05/22 11:12:12;;;;;;;0.60;0.60;;;14.70;99.90;;;;;;4938875;28;20818;-73
2021/05/22 11:14:53;;;;;;;0.90;0.90;;;14.90;99.90;;;;;;4968517;28;20579;-73
2021/05/22 11:17:19;;;;;;;2.93;1.13;;;15.00;99.90;;;;;;4936724;29;20415;-73
2021/05/22 11:19:57;;;;;;;0.70;0.70;;;15.10;99.90;;;;;;4949935;28;20433;-73
2021/05/22 11:22:23;;;;;;;0.90;0.90;;;15.10;99.90;;;;;;4938524;28;20193;-73
2021/05/22 11:25:12;;;;;;;1.77;0.90;;;15.00;99.90;;;;;;4940093;28;20445;-73
2021/05/22 11:30:16;;;;;;;1.13;0.60;;;15.00;99.90;;;;;;4963019;28;20503;-73
2021/05/22 11:32:47;;;;;;;1.47;0.87;;;14.90;99.90;;;;;;4959892;28;20442;-73
2021/05/22 11:35:28;;;;;;;4.40;1.23;;;14.80;99.90;;;;;;4945934;29;20447;-73
2021/05/22 11:40:38;;;;;;;0.97;0.70;;;14.60;99.90;;;;;;4972534;28;20421;-73
2021/05/22 11:43:13;;;;;;;1.50;0.87;;;14.60;99.90;;;;;;4954592;28;20442;-74
2021/05/22 11:45:53;;;;;;;0.80;0.57;;;14.50;99.90;;;;;;5107597;27;20566;-74
2021/05/22 11:48:55;;;;;;;5.00;1.00;;;14.50;99.90;;;;;;5040893;28;20424;-73
2021/05/22 11:51:31;;;;;;;3.63;0.60;;;14.40;99.90;;;;;;5067644;28;20935;-74
2021/05/22 11:54:06;;;;;;;1.10;0.90;;;14.40;99.90;;;;;;5105324;28;20454;-74
2021/05/22 11:56:37;;;;;;;1.33;0.60;;;14.50;99.90;;;;;;5088893;28;20919;-74
2021/05/22 11:59:04;;;;;;;1.43;0.73;;;14.70;99.90;;;;;;5089918;28;20424;-74
2021/05/22 12:01:33;;;;;;;1.20;0.50;;;14.80;99.90;;;;;;5053997;28;20428;-74
2021/05/22 12:04:03;;;;;;;0.60;0.50;;;14.90;99.90;;;;;;5071981;28;20479;-74
2021/05/22 12:06:39;;;;;;;0.87;0.70;;;15.00;99.90;;;;;;5103836;28;20408;-74
2021/05/22 12:09:05;;;;;;;2.97;0.73;;;15.20;99.90;;;;;;5087755;28;20423;-74
2021/05/22 12:11:32;;;;;;;1.27;0.90;;;15.20;99.90;;;;;;5085190;28;20420;-74
2021/05/22 12:14:04;;;;;;;1.13;0.80;;;15.30;99.90;;;;;;5089206;28;20213;-73
2021/05/22 12:16:30;;;;;;;1.50;0.70;;;15.30;99.90;;;;;;5057410;28;20416;-74
2021/05/22 12:18:56;;;;;;;0.70;0.67;;;15.30;99.90;;;;;;5089380;28;20526;-74
2021/05/22 12:21:25;;;;;;;1.90;1.53;;;15.30;99.90;;;;;;5070677;28;20478;-74
2021/05/22 12:23:52;;;;;;;1.37;0.80;;;15.40;99.90;;;;;;5086409;28;20219;-74
2021/05/22 12:26:17;;;;;;;0.70;0.70;;;15.40;99.90;;;;;;5087010;28;20946;-74
2021/05/22 12:28:44;;;;;;;1.80;1.00;;;15.60;99.90;;;;;;5086844;28;20428;-74
2021/05/22 12:31:10;;;;;;;1.23;0.77;;;15.70;99.90;;;;;;5099482;28;20177;-74
2021/05/22 12:33:36;;;;;;;1.73;1.10;;;15.80;99.90;;;;;;5117989;27;20471;-74
2021/05/22 12:36:10;;;;;;;1.80;0.90;;;15.90;99.90;;;;;;5087068;28;20425;-74
2021/05/22 12:38:41;;;;;;;3.53;0.80;;;15.90;99.90;;;;;;5092974;28;20654;-74
2021/05/22 12:41:08;;;;;;;1.17;0.90;;;16.00;99.90;;;;;;5081970;28;20429;-74
2021/05/22 12:43:48;;;;;;;1.10;1.00;;;15.90;99.90;;;;;;5090363;28;20955;-74
2021/05/22 12:46:35;;;;;;;1.23;0.70;;;15.80;99.90;;;;;;5068367;28;20432;-74
2021/05/22 12:49:10;;;;;;;1.20;1.00;;;15.80;99.90;;;;;;5087338;28;20900;-74
2021/05/22 12:51:36;;;;;;;1.03;0.80;;;15.70;99.90;;;;;;5097682;28;21175;-74
2021/05/22 12:54:28;;;;;;;0.70;0.63;;;15.60;99.90;;;;;;5093909;28;20457;-74
2021/05/22 12:57:09;;;;;;;1.63;0.80;;;15.60;99.90;;;;;;5073844;28;20537;-74
2021/05/22 12:59:37;;;;;;;2.30;0.80;;;15.70;99.90;;;;;;5081761;28;20440;-74
2021/05/22 13:02:25;;;;;;;1.33;1.10;;;15.70;99.90;;;;;;5076236;28;20420;-74
2021/05/22 13:04:57;;;;;;;0.77;0.77;;;15.80;99.90;;;;;;5088581;28;20460;-74
2021/05/22 13:07:28;;;;;;;0.50;0.50;;;15.90;99.90;;;;;;5090799;28;20489;-74
2021/05/22 13:10:01;;;;;;;1.80;0.90;;;16.00;99.90;;;;;;5075802;28;20427;-74
2021/05/22 13:12:30;;;;;;;1.07;0.97;;;16.10;99.90;;;;;;5075412;28;20443;-74
2021/05/22 13:15:14;;;;;;;0.90;0.90;;;16.20;99.90;;;;;;5091290;28;20468;-74
2021/05/22 13:17:54;;;;;;;1.00;0.90;;;16.20;99.90;;;;;;5067341;28;20911;-74
2021/05/22 13:20:40;;;;;;;2.00;0.70;;;16.30;99.90;;;;;;5058739;28;20432;-74
2021/05/22 13:23:17;;;;;;;1.00;1.00;;;16.30;99.90;;;;;;5091515;28;20449;-74
2021/05/22 13:25:45;;;;;;;2.00;0.97;;;16.30;99.90;;;;;;5087047;28;20467;-74
2021/05/22 13:28:20;;;;;;;2.87;0.80;;;16.20;99.90;;;;;;5079136;28;20418;-74
2021/05/22 13:30:48;;;;;;;0.93;0.77;;;16.10;99.90;;;;;;5078837;28;20408;-74
2021/05/22 13:33:14;;;;;;;2.93;0.80;;;15.90;99.90;;;;;;5093015;28;20455;-74
2021/05/22 13:35:42;;;;;;;1.33;0.80;;;15.70;99.90;;;;;;5091965;28;20424;-74
2021/05/22 13:38:08;;;;;;;1.00;1.00;;;15.50;99.90;;;;;;5075025;28;20419;-74
2021/05/22 13:40:37;;;;;;;1.37;0.80;;;15.40;99.90;;;;;;5091820;28;20417;-74
2021/05/22 13:43:06;;;;;;;1.67;0.70;;;15.20;99.90;;;;;;5091500;28;20448;-74
2021/05/22 13:45:31;;;;;;;0.70;0.70;;;15.20;99.90;;;;;;5071115;28;20523;-74
2021/05/22 13:47:57;;;;;;;0.60;0.60;;;15.20;99.90;;;;;;5074627;28;20421;-74
2021/05/22 13:50:24;;;;;;;0.70;0.70;;;15.30;99.90;;;;;;5074145;28;20187;-74
2021/05/22 13:52:51;;;;;;;0.50;0.50;;;15.40;99.90;;;;;;5077039;28;20261;-74
2021/05/22 13:55:18;;;;;;;0.53;0.53;;;15.60;99.90;;;;;;5091432;28;20435;-74
2021/05/22 13:57:45;;;;;;;0.70;0.70;;;15.60;99.90;;;;;;5090758;28;20433;-74
2021/05/22 14:00:13;;;;;;;0.70;0.70;;;15.60;99.90;;;;;;5081079;28;20437;-74
2021/05/22 14:02:40;;;;;;;1.80;0.73;;;15.50;99.90;;;;;;5087321;28;20429;-74
2021/05/22 14:05:07;;;;;;;1.33;0.70;;;15.40;99.90;;;;;;5074453;28;20463;-74
2021/05/22 14:07:33;;;;;;;1.77;0.63;;;15.40;99.90;;;;;;5073333;28;20424;-74
2021/05/22 14:09:58;;;;;;;0.80;0.80;;;15.40;99.90;;;;;;5064830;28;20437;-74
2021/05/22 14:12:24;;;;;;;0.90;0.80;;;15.50;99.90;;;;;;5053857;28;20417;-74
2021/05/22 14:14:50;;;;;;;0.97;0.50;;;15.60;99.90;;;;;;5064039;28;20210;-74
2021/05/22 14:17:16;;;;;;;0.63;0.60;;;15.60;99.90;;;;;;5069697;28;20190;-74
2021/05/22 14:19:41;;;;;;;0.60;0.60;;;15.60;99.90;;;;;;5084168;28;20190;-74
2021/05/22 14:22:09;;;;;;;0.60;0.60;;;15.60;99.90;;;;;;5053802;28;20183;-74
2021/05/22 14:24:37;;;;;;;1.10;0.80;;;15.50;99.90;;;;;;5066188;28;20267;-74
2021/05/22 14:27:04;;;;;;;2.50;0.60;;;15.40;99.90;;;;;;5086668;28;20409;-74
2021/05/22 14:29:30;;;;;;;2.07;0.60;;;15.40;99.90;;;;;;5088007;28;20484;-74
2021/05/22 14:31:56;;;;;;;0.73;0.73;;;15.40;99.90;;;;;;5085024;28;20907;-74
2021/05/22 14:34:22;;;;;;;1.33;0.60;;;15.30;99.90;;;;;;5103378;28;20500;-74
2021/05/22 14:36:49;;;;;;;1.00;0.67;;;15.30;99.90;;;;;;5076836;28;20650;-74
2021/05/22 14:39:16;;;;;;;0.57;0.40;;;15.30;99.90;;;;;;5067246;28;20183;-74
2021/05/22 14:41:42;;;;;;;1.20;0.80;;;15.30;99.90;;;;;;5064208;28;20444;-74
2021/05/22 14:44:08;;;;;;;2.77;0.67;;;15.30;99.90;;;;;;5097502;28;20725;-74
2021/05/22 14:46:33;;;;;;;0.63;0.50;;;15.30;99.90;;;;;;5096908;28;20221;-74
2021/05/22 14:48:59;;;;;;;0.60;0.60;;;15.40;99.90;;;;;;5076634;28;20452;-74
2021/05/22 14:51:25;;;;;;;1.17;0.80;;;15.50;99.90;;;;;;5097455;28;20187;-74
2021/05/22 14:53:51;;;;;;;1.27;0.70;;;15.70;99.90;;;;;;5078169;28;20203;-74
2021/05/22 14:56:17;;;;;;;0.60;0.60;;;15.70;99.90;;;;;;5069195;28;20223;-74
2021/05/22 14:59:02;;;;;;;2.97;1.20;;;15.80;99.90;;;;;;5052535;28;20445;-74
2021/05/22 15:01:28;;;;;;;2.10;1.07;;;15.80;99.90;;;;;;5069080;28;20187;-74
2021/05/22 15:03:54;;;;;;;2.10;0.90;;;15.80;99.90;;;;;;5035018;28;20461;-74
2021/05/22 15:06:21;;;;;;;2.60;0.73;;;15.90;99.90;;;;;;5071526;28;20554;-74
2021/05/22 15:08:47;;;;;;;0.60;0.40;;;16.00;99.90;;;;;;5065861;28;20203;-74
2021/05/22 15:11:29;;;;;;;0.77;0.77;;;16.00;99.90;;;;;;5077675;28;20520;-74
2021/05/22 15:13:55;;;;;;;0.70;0.70;;;15.90;99.90;;;;;;5064266;28;20452;-74
2021/05/22 15:16:21;;;;;;;2.20;2.10;;;16.00;99.90;;;;;;5078704;28;20803;-74
2021/05/22 15:18:46;;;;;;;1.40;0.70;;;15.90;99.90;;;;;;5070436;28;20191;-74
2021/05/22 15:21:14;;;;;;;1.50;0.70;;;15.90;99.90;;;;;;5047034;28;20182;-74
2021/05/22 15:23:40;;;;;;;0.70;0.70;;;15.90;99.90;;;;;;5086005;28;20213;-74
2021/05/22 15:26:06;;;;;;;1.53;0.70;;;15.90;99.70;;;;;;5069369;28;20485;-74
2021/05/22 15:28:32;;;;;;;0.50;0.50;;;15.70;99.60;;;;;;5070822;28;20178;-74
2021/05/22 15:30:58;;;;;;;0.77;0.50;;;15.70;99.80;;;;;;5063886;28;20425;-74
2021/05/22 15:33:24;;;;;;;0.53;0.53;;;15.60;99.70;;;;;;5089645;28;20444;-74
2021/05/22 15:35:51;;;;;;;0.90;0.80;;;15.70;99.30;;;;;;5082841;28;20574;-74
2021/05/22 15:38:16;;;;;;;0.50;0.50;;;15.70;99.00;;;;;;5072376;28;20179;-74
2021/05/22 15:40:45;;;;;;;1.20;0.77;;;15.80;99.60;;;;;;5070866;28;20438;-74
2021/05/22 15:43:13;;;;;;;2.60;1.67;;;15.90;99.90;;;;;;5066693;28;20268;-74
2021/05/22 15:45:40;;;;;;;1.43;0.97;;;16.00;99.90;;;;;;5072658;28;20958;-74
2021/05/22 15:51:30;;;;;;;0.63;0.60;;;16.10;99.90;;;;;;5057772;28;20470;-74
2021/05/22 15:59:05;;;;;;;0.93;0.80;;;16.20;99.90;;;;;;5067158;28;20434;-71
2021/05/22 16:01:42;;;;;;;0.93;0.70;;;16.20;99.90;;;;;;5085277;28;20484;-74
2021/05/22 16:04:23;;;;;;;0.77;0.77;;;16.20;99.90;;;;;;5049468;28;20206;-74
2021/05/22 16:06:49;;;;;;;0.80;0.73;;;16.10;99.90;;;;;;5056426;28;20421;-74
2021/05/22 16:09:15;;;;;;;1.60;1.40;;;16.10;99.90;;;;;;5081052;28;20518;-74
2021/05/22 16:11:40;;;;;;;3.70;2.10;;;16.00;99.90;;;;;;5074895;28;20588;-74
2021/05/22 16:14:07;;;;;;;4.67;2.43;;;16.00;99.90;;;;;;5089354;28;20199;-74
2021/05/22 16:16:34;;;;;;;6.43;2.87;;;15.90;99.90;;;;;;5074185;28;20190;-74
2021/05/22 16:19:00;;;;;;;3.37;2.30;;;15.90;99.90;;;;;;5032677;28;20453;-74
2021/05/22 16:21:25;;;;;;;4.00;1.90;;;15.90;99.90;;;;;;5066377;28;20425;-74
2021/05/22 16:23:52;;;;;;;3.27;2.50;;;16.00;99.90;;;;;;5069468;28;20472;-74
2021/05/22 16:26:17;;;;;;;1.10;1.00;;;15.90;99.80;;;;;;5062359;28;20290;-74
2021/05/22 16:28:43;;;;;;;1.93;1.00;;;15.90;99.50;;;;;;5072832;28;20493;-72
2021/05/22 16:31:09;;;;;;;2.00;1.10;;;15.90;99.40;;;;;;5034772;28;20176;-72
2021/05/22 16:33:35;;;;;;;0.97;0.90;;;15.80;99.30;;;;;;5035740;28;20223;-72
2021/05/22 16:36:00;;;;;;;4.37;3.40;;;15.70;99.20;;;;;;5093170;28;20266;-72
2021/05/22 16:38:26;;;;;;;1.63;1.07;;;15.70;98.90;;;;;;5069462;28;20180;-72
2021/05/22 16:40:52;;;;;;;1.13;1.07;;;15.60;98.70;;;;;;5091430;28;20222;-72
2021/05/22 16:43:18;;;;;;;1.07;0.97;;;15.60;99.00;;;;;;5028636;28;20581;-72
2021/05/22 16:45:44;;;;;;;0.83;0.83;;;15.50;99.00;;;;;;5067019;28;20473;-72
2021/05/22 16:48:15;;;;;;;1.50;1.40;;;15.50;99.10;;;;;;5071075;28;20191;-71
2021/05/22 16:50:41;;;;;;;3.50;1.33;;;15.40;99.30;;;;;;5070263;28;20185;-72
2021/05/22 16:53:07;;;;;;;2.40;1.30;;;15.50;99.40;;;;;;5067139;28;20445;-72
2021/05/22 16:55:33;;;;;;;1.50;1.10;;;15.50;99.60;;;;;;5034039;28;20441;-72
2021/05/22 16:57:58;;;;;;;1.40;0.77;;;15.60;99.60;;;;;;5054508;28;20198;-72
2021/05/22 17:00:24;;;;;;;3.17;1.00;;;15.60;99.40;;;;;;5033932;28;20659;-72
2021/05/22 17:02:50;;;;;;;1.27;1.17;;;15.50;99.10;;;;;;5092043;28;20219;-72
2021/05/22 17:05:19;;;;;;;0.90;0.80;;;15.50;99.40;;;;;;5066919;28;20211;-72
2021/05/22 17:07:47;;;;;;;2.50;1.00;;;15.40;99.40;;;;;;5054693;28;20426;-72
2021/05/22 17:10:14;;;;;;;1.73;1.13;;;15.40;99.60;;;;;;5065497;28;20528;-72
2021/05/22 17:12:40;;;;;;;1.73;1.23;;;15.40;99.70;;;;;;5049256;28;20413;-72
2021/05/22 17:15:07;;;;;;;3.27;1.07;;;15.20;99.60;;;;;;5037849;28;20959;-72
2021/05/22 17:17:33;;;;;;;0.97;0.87;;;15.20;99.80;;;;;;5062562;28;20639;-72
2021/05/22 17:19:58;;;;;;;1.93;1.10;;;15.00;99.40;;;;;;5076186;28;20430;-75
2021/05/22 17:22:24;;;;;;;1.60;0.70;;;15.00;99.20;;;;;;5092111;28;20191;-72
2021/05/22 17:24:51;;;;;;;0.97;0.87;;;14.80;99.10;;;;;;5090420;28;20211;-74
2021/05/22 17:27:17;;;;;;;3.33;0.67;;;14.70;99.40;;;;;;5089189;28;20451;-74
2021/05/22 17:29:43;;;;;;;0.70;0.53;;;14.80;99.90;;;;;;5070638;28;20434;-74
2021/05/22 17:32:11;;;;;;;0.90;0.80;;;14.80;99.90;;;;;;5067883;28;20429;-74
2021/05/22 17:34:37;;;;;;;0.70;0.70;;;14.90;99.90;;;;;;5062514;28;20231;-74
2021/05/22 17:37:03;;;;;;;1.03;0.67;;;14.80;99.90;;;;;;5063871;28;20431;-71
2021/05/22 17:39:29;;;;;;;0.70;0.50;;;14.90;99.90;;;;;;5064143;28;20431;-72
2021/05/22 17:41:54;;;;;;;1.47;0.90;;;14.80;99.90;;;;;;5067722;28;20249;-74
2021/05/22 17:44:20;;;;;;;1.80;0.90;;;14.80;99.90;;;;;;5034946;28;20803;-74
2021/05/22 17:46:46;;;;;;;1.23;1.13;;;14.90;99.90;;;;;;5036400;28;20206;-74
2021/05/22 17:49:11;;;;;;;2.93;0.90;;;14.90;99.90;;;;;;5069179;28;20205;-74
2021/05/22 17:51:37;;;;;;;1.97;0.63;;;14.90;99.90;;;;;;5066355;28;20186;-74
2021/05/22 17:54:04;;;;;;;1.87;0.80;;;14.90;99.90;;;;;;5064831;28;20267;-74
2021/05/22 17:56:29;;;;;;;0.57;0.57;;;14.90;99.90;;;;;;5065779;28;20433;-74
2021/05/22 17:58:55;;;;;;;1.93;0.63;;;15.00;99.90;;;;;;5079312;28;20520;-74
2021/05/22 18:01:24;;;;;;;2.30;1.00;;;14.90;99.90;;;;;;5052547;28;20256;-74
2021/05/22 18:03:50;;;;;;;1.97;0.83;;;15.00;99.90;;;;;;5064422;28;20840;-74
2021/05/22 18:06:19;;;;;;;0.97;0.97;;;14.90;99.90;;;;;;5037533;28;20428;-74
2021/05/22 18:08:45;;;;;;;0.90;0.90;;;14.90;99.90;;;;;;5068399;28;20442;-74
2021/05/22 18:11:11;;;;;;;6.20;0.80;;;14.80;99.90;;;;;;5068834;28;20433;-74
2021/05/22 18:13:37;;;;;;;1.93;0.93;;;14.80;99.90;;;;;;5033048;28;20469;-74
2021/05/22 18:16:02;;;;;;;1.47;0.80;;;14.70;99.90;;;;;;5042727;28;20179;-74
2021/05/22 18:18:28;;;;;;;1.20;0.67;;;14.70;99.90;;;;;;5058516;28;20207;-74
2021/05/22 18:20:55;;;;;;;0.63;0.63;;;14.70;99.90;;;;;;5068232;28;20206;-74
2021/05/22 18:23:20;;;;;;;1.10;0.90;;;14.70;99.90;;;;;;5059991;28;20229;-74
2021/05/22 18:25:46;;;;;;;1.47;1.00;;;14.60;99.90;;;;;;5065754;28;20831;-74
2021/05/22 18:28:12;;;;;;;1.50;0.93;;;14.70;99.90;;;;;;5035116;28;20269;-74
2021/05/22 18:30:38;;;;;;;0.97;0.90;;;14.70;99.90;;;;;;5060412;28;20194;-74
2021/05/22 18:33:04;;;;;;;2.70;0.80;;;14.70;99.90;;;;;;5068203;28;20199;-74
2021/05/22 18:35:30;;;;;;;1.67;1.57;;;14.70;99.90;;;;;;5062509;28;20438;-74
2021/05/22 18:37:56;;;;;;;0.80;0.80;;;14.70;99.90;;;;;;5046250;28;20794;-74
2021/05/22 18:40:25;;;;;;;2.30;0.77;;;14.70;99.90;;;;;;5064828;28;20188;-74
2021/05/22 18:42:51;;;;;;;1.23;0.90;;;14.70;99.90;;;;;;5050039;28;20278;-74
2021/05/22 18:45:17;;;;;;;2.60;1.00;;;14.70;99.90;;;;;;5050049;28;20469;-74
2021/05/22 18:47:44;;;;;;;1.90;1.33;;;14.70;99.90;;;;;;5071107;28;20432;-74
2021/05/22 18:50:14;;;;;;;1.03;0.93;;;14.70;99.90;;;;;;5065464;28;20486;-74
2021/05/22 18:52:39;;;;;;;2.73;1.50;;;14.60;99.90;;;;;;5048684;28;20441;-74
2021/05/22 18:55:06;;;;;;;2.80;1.20;;;14.70;99.90;;;;;;5058515;28;20474;-74
2021/05/22 18:57:32;;;;;;;2.27;1.23;;;14.70;99.90;;;;;;5069947;28;20225;-74
2021/05/22 18:59:58;;;;;;;1.63;1.27;;;14.70;99.90;;;;;;5065155;28;20881;-74
2021/05/22 19:02:25;;;;;;;1.10;1.00;;;14.70;99.90;;;;;;5048071;28;20449;-74
2021/05/22 19:04:51;;;;;;;1.90;0.90;;;14.70;99.90;;;;;;5051954;28;20225;-74
2021/05/22 19:07:17;;;;;;;1.13;0.90;;;14.70;99.90;;;;;;5079213;28;20425;-74
2021/05/22 19:09:43;;;;;;;2.30;0.83;;;14.60;99.90;;;;;;5069550;28;20186;-74
2021/05/22 19:12:10;;;;;;;0.90;0.67;;;14.60;99.90;;;;;;5078998;28;20510;-74
2021/05/22 19:14:36;;;;;;;1.13;1.03;;;14.50;99.90;;;;;;5047290;28;20450;-74
2021/05/22 19:17:03;;;;;;;2.63;1.40;;;14.40;99.90;;;;;;5064809;28;20414;-74
2021/05/22 19:19:28;;;;;;;1.20;1.10;;;14.40;99.90;;;;;;5064780;28;20456;-74
2021/05/22 19:21:54;;;;;;;0.60;0.60;;;14.30;99.90;;;;;;5069991;28;20427;-74
2021/05/22 19:24:20;;;;;;;2.20;0.97;;;14.30;99.90;;;;;;5029642;28;20210;-74
2021/05/22 19:26:46;;;;;;;2.60;1.00;;;14.20;99.90;;;;;;5039019;28;20275;-74
2021/05/22 19:29:12;;;;;;;2.60;1.73;;;14.20;99.90;;;;;;5049101;28;20221;-74
2021/05/22 19:31:38;;;;;;;2.90;1.53;;;14.10;99.90;;;;;;5061207;28;20179;-74
2021/05/22 19:34:04;;;;;;;1.87;1.57;;;14.10;99.90;;;;;;5064592;28;20449;-74
2021/05/22 19:36:30;;;;;;;2.50;1.30;;;14.10;99.90;;;;;;5028776;28;20430;-74
2021/05/22 19:38:55;;;;;;;1.03;1.00;;;14.00;99.90;;;;;;5050148;28;20441;-74
2021/05/22 19:41:23;;;;;;;1.50;1.40;;;14.00;99.90;;;;;;5058526;28;20222;-74
2021/05/22 19:43:48;;;;;;;1.93;1.80;;;14.00;99.90;;;;;;5067202;28;20222;-74
2021/05/22 19:46:15;;;;;;;1.63;1.37;;;14.00;99.90;;;;;;5039522;28;20439;-74
2021/05/22 19:48:43;;;;;;;1.20;1.07;;;14.00;99.90;;;;;;5037192;28;20214;-74
2021/05/22 19:51:09;;;;;;;1.63;1.20;;;14.00;99.90;;;;;;5040916;28;20936;-74
2021/05/22 19:53:35;;;;;;;1.17;0.87;;;13.90;99.90;;;;;;5050900;28;20470;-74
2021/05/22 19:56:01;;;;;;;0.80;0.80;;;13.80;99.90;;;;;;5065817;28;20454;-74
2021/05/22 19:58:29;;;;;;;3.47;1.37;;;13.70;99.90;;;;;;5048174;28;20496;-74
2021/05/22 20:00:55;;;;;;;0.77;0.77;;;13.60;99.90;;;;;;5066035;28;20461;-74
2021/05/22 20:03:21;;;;;;;1.00;0.90;;;13.60;99.90;;;;;;5036347;28;20460;-73
2021/05/22 20:05:46;;;;;;;1.00;0.90;;;13.60;99.90;;;;;;5027402;28;20465;-74
2021/05/22 20:08:12;;;;;;;2.50;0.90;;;13.60;99.90;;;;;;5064796;28;20185;-74
2021/05/22 20:10:38;;;;;;;1.40;1.30;;;13.70;99.90;;;;;;5064126;28;20206;-74
2021/05/22 20:13:04;;;;;;;0.97;0.87;;;13.70;99.90;;;;;;5076157;28;20348;-74
2021/05/22 20:15:31;;;;;;;0.70;0.70;;;13.70;99.90;;;;;;5059026;28;20183;-74
2021/05/22 20:17:57;;;;;;;2.00;0.80;;;13.70;99.90;;;;;;5098803;28;20178;-74
2021/05/22 20:20:23;;;;;;;0.83;0.63;;;13.60;99.90;;;;;;5068006;28;20451;-74
2021/05/22 20:22:54;;;;;;;1.40;0.83;;;13.60;99.90;;;;;;5035968;28;20198;-74
2021/05/22 20:25:20;;;;;;;1.60;0.80;;;13.60;99.90;;;;;;5061955;28;20499;-74
2021/05/22 20:27:46;;;;;;;0.90;0.57;;;13.50;99.90;;;;;;5069751;28;20911;-74
2021/05/22 20:30:14;;;;;;;4.20;1.40;;;13.50;99.90;;;;;;5075087;28;20443;-74
2021/05/22 20:32:40;;;;;;;1.37;1.27;;;13.50;99.90;;;;;;5074678;28;20643;-74
2021/05/22 20:35:07;;;;;;;0.80;0.80;;;13.50;99.90;;;;;;5060645;28;20441;-74
2021/05/22 20:37:33;;;;;;;1.00;0.87;;;13.40;99.90;;;;;;5059363;28;20186;-74
2021/05/22 20:39:59;;;;;;;0.90;0.70;;;13.40;99.90;;;;;;5029853;28;20441;-74
2021/05/22 20:42:25;;;;;;;0.70;0.70;;;13.30;99.90;;;;;;5068408;28;20191;-74
2021/05/22 20:44:51;;;;;;;1.00;0.90;;;13.30;99.90;;;;;;5067341;28;20215;-74
2021/05/22 20:47:17;;;;;;;1.50;0.80;;;13.30;99.90;;;;;;5059560;28;20179;-74
2021/05/22 20:49:46;;;;;;;0.70;0.70;;;13.20;99.90;;;;;;5043141;28;21225;-74
2021/05/22 20:52:16;;;;;;;0.50;0.50;;;13.10;99.90;;;;;;5041240;28;20175;-74
2021/05/22 20:54:43;;;;;;;3.27;0.97;;;13.00;99.90;;;;;;5040284;28;20457;-74
2021/05/22 20:57:10;;;;;;;1.03;0.70;;;13.00;99.90;;;;;;5068128;28;20432;-74
2021/05/22 20:59:36;;;;;;;5.80;0.90;;;13.00;99.90;;;;;;5063501;28;20430;-74
2021/05/22 21:02:03;;;;;;;2.40;0.67;;;13.00;99.90;;;;;;5069745;28;20429;-74
2021/05/22 21:04:29;;;;;;;1.37;0.70;;;13.00;99.90;;;;;;5073815;28;20320;-74
2021/05/22 21:06:55;;;;;;;1.03;1.03;;;13.10;99.90;;;;;;5063028;28;20987;-74
2021/05/22 21:09:20;;;;;;;1.33;0.70;;;13.10;99.90;;;;;;5045580;28;20191;-74
2021/05/22 21:11:46;;;;;;;0.90;0.70;;;13.20;99.90;;;;;;5055067;28;20437;-73
2021/05/22 21:14:13;;;;;;;1.40;1.00;;;13.10;99.90;;;;;;5030248;28;20226;-74
2021/05/22 21:16:39;;;;;;;0.93;0.70;;;13.10;99.90;;;;;;5058963;28;20224;-74
2021/05/22 21:19:07;;;;;;;0.70;0.70;;;13.10;99.90;;;;;;5074903;28;20451;-74
2021/05/22 21:21:32;;;;;;;1.17;0.90;;;13.10;99.90;;;;;;5070230;28;20432;-74
2021/05/22 21:23:58;;;;;;;2.80;0.90;;;13.10;99.90;;;;;;5063358;28;20452;-74
2021/05/22 21:26:24;;;;;;;1.70;0.80;;;13.10;99.90;;;;;;5046129;28;20557;-74
2021/05/22 21:28:51;;;;;;;1.13;0.67;;;13.10;99.90;;;;;;5065730;28;20665;-74
2021/05/22 21:31:17;;;;;;;1.00;0.70;;;13.10;99.90;;;;;;5051504;28;20437;-74
2021/05/22 21:33:43;;;;;;;1.00;0.73;;;13.00;99.90;;;;;;5068263;28;20440;-74
2021/05/22 21:36:10;;;;;;;1.20;0.70;;;13.00;99.90;;;;;;5037503;28;20179;-74
2021/05/22 21:38:36;;;;;;;0.87;0.80;;;13.00;99.90;;;;;;5079386;28;20587;-74
2021/05/22 21:41:02;;;;;;;0.50;0.50;;;12.90;99.90;;;;;;5040021;28;20980;-74
2021/05/22 21:43:28;;;;;;;0.90;0.70;;;12.90;99.90;;;;;;5063645;28;20202;-74
2021/05/22 21:45:55;;;;;;;1.00;0.70;;;12.70;99.90;;;;;;5077150;28;20207;-74
2021/05/22 21:48:21;;;;;;;0.50;0.50;;;12.70;99.90;;;;;;5030424;28;20533;-74
2021/05/22 21:50:46;;;;;;;0.50;0.50;;;12.70;99.90;;;;;;5043145;28;20517;-74
2021/05/22 21:53:12;;;;;;;1.17;0.70;;;12.70;99.90;;;;;;5053586;28;20199;-74
2021/05/22 21:55:38;;;;;;;2.33;0.93;;;12.60;99.90;;;;;;5047205;28;20183;-74
2021/05/22 21:58:07;;;;;;;2.77;0.60;;;12.50;99.90;;;;;;5085966;28;20188;-74
2021/05/22 22:00:44;;;;;;;0.80;0.63;;;12.50;99.90;;;;;;5059454;28;20437;-74
2021/05/22 22:03:17;;;;;;;1.03;0.80;;;12.50;99.90;;;;;;5051266;28;20577;-74
2021/05/22 22:05:46;;;;;;;0.80;0.80;;;12.50;99.90;;;;;;5032149;28;20472;-74
2021/05/22 22:08:12;;;;;;;1.80;0.53;;;12.50;99.90;;;;;;5067848;28;20421;-74
2021/05/22 22:10:38;;;;;;;0.73;0.67;;;12.50;99.90;;;;;;5031391;28;20444;-74
2021/05/22 22:13:04;;;;;;;0.80;0.70;;;12.50;99.90;;;;;;5081079;28;20442;-74
2021/05/22 22:15:32;;;;;;;0.60;0.60;;;12.60;99.90;;;;;;5074122;28;20436;-74
2021/05/22 22:17:58;;;;;;;1.80;0.90;;;12.60;99.90;;;;;;5079422;28;20431;-74
2021/05/22 22:20:28;;;;;;;1.33;0.93;;;12.60;99.90;;;;;;5045722;28;20461;-74
2021/05/22 22:22:55;;;;;;;1.00;0.80;;;12.60;99.90;;;;;;5075582;28;20512;-74
2021/05/22 22:25:21;;;;;;;2.53;1.10;;;12.60;99.90;;;;;;5080613;28;20464;-74
2021/05/22 22:27:47;;;;;;;1.37;1.10;;;12.60;99.90;;;;;;5054184;28;20519;-74
2021/05/22 22:30:14;;;;;;;1.53;1.37;;;12.70;99.90;;;;;;5073101;28;20191;-74
2021/05/22 22:32:40;;;;;;;1.20;0.80;;;12.70;99.90;;;;;;5079917;28;21058;-74
2021/05/22 22:35:15;;;;;;;1.63;0.70;;;12.70;99.90;;;;;;5076765;28;20468;-74
2021/05/22 22:37:41;;;;;;;2.60;2.03;;;12.70;99.90;;;;;;5029975;28;20441;-74
2021/05/22 22:40:10;;;;;;;2.10;0.80;;;12.60;99.90;;;;;;5040350;28;20485;-74
2021/05/22 22:42:37;;;;;;;0.80;0.80;;;12.50;99.90;;;;;;5063829;28;20202;-74
2021/05/22 22:45:05;;;;;;;1.23;1.13;;;12.50;99.90;;;;;;5076404;28;20499;-74
2021/05/22 22:47:30;;;;;;;1.30;1.07;;;12.40;99.90;;;;;;5063924;28;20425;-74
2021/05/22 22:49:56;;;;;;;0.90;0.63;;;12.30;99.90;;;;;;5028655;28;20445;-74
2021/05/22 22:52:23;;;;;;;0.53;0.53;;;12.30;99.90;;;;;;5036311;28;20175;-74
2021/05/22 22:54:49;;;;;;;1.27;1.17;;;12.20;99.90;;;;;;5050454;28;20238;-74
2021/05/22 22:57:14;;;;;;;4.90;0.93;;;12.10;99.90;;;;;;5062641;28;20471;-74
2021/05/22 22:59:40;;;;;;;2.90;0.93;;;12.10;99.90;;;;;;5063449;28;20459;-74
2021/05/22 23:02:06;;;;;;;0.77;0.77;;;12.00;99.90;;;;;;5053628;28;20190;-74